Time;durP1;ratioP1;P1;durP2;ratioP2;P2;SDS_P1;SDS_P2;PMS_P1;PMS_P2;Temp;Humidity;BMP_temperature;BMP_pressure;BME280_temperature;BME280_humidity;BME280_pressure;Samples;Min_cycle;Max_cycle;Signal;HPM_P1;HPM_P2
2022/10/25 00:01:49;;;;;;;8.57;8.00;;;;;;;;;;4997726;28;20037;-63
2022/10/25 00:04:15;;;;;;;7.43;6.93;;;;;;;;;;4995189;28;20057;-63
2022/10/25 00:06:41;;;;;;;7.82;7.32;;;;;;;;;;4997332;28;20021;-63
2022/10/25 00:09:07;;;;;;;7.60;7.10;;;;;;;;;;4999429;28;20030;-63
2022/10/25 00:11:33;;;;;;;7.75;7.18;;;;;;;;;;4994399;28;20030;-62
2022/10/25 00:14:02;;;;;;;7.60;7.10;;;;;;;;;;4997468;28;20068;-63
2022/10/25 00:16:30;;;;;;;7.10;6.60;;;;;;;;;;4996239;28;20509;-63
2022/10/25 00:18:55;;;;;;;7.97;7.47;;;;;;;;;;4996796;28;20065;-63
2022/10/25 00:21:21;;;;;;;7.70;7.10;;;;;;;;;;4999648;28;20464;-62
2022/10/25 00:23:47;;;;;;;7.53;7.03;;;;;;;;;;4996731;28;20040;-62
2022/10/25 00:26:13;;;;;;;7.22;6.72;;;;;;;;;;4997381;28;20045;-63
2022/10/25 00:28:38;;;;;;;8.98;8.38;;;;;;;;;;4995158;28;20034;-62
2022/10/25 00:31:07;;;;;;;7.55;7.05;;;;;;;;;;5028637;28;20041;-62
2022/10/25 00:33:34;;;;;;;7.85;7.35;;;;;;;;;;4995595;28;20026;-62
2022/10/25 00:36:19;;;;;;;7.88;7.32;;;;;;;;;;4996607;28;20062;-63
2022/10/25 00:38:45;;;;;;;7.65;7.15;;;;;;;;;;4998699;28;20022;-63
2022/10/25 00:41:14;;;;;;;7.60;7.10;;;;;;;;;;4994017;28;20018;-62
2022/10/25 00:43:43;;;;;;;7.78;7.28;;;;;;;;;;4998678;28;20037;-62
2022/10/25 00:46:21;;;;;;;7.28;6.78;;;;;;;;;;4998030;28;20500;-62
2022/10/25 00:49:02;;;;;;;7.22;6.72;;;;;;;;;;4997901;28;20095;-62
2022/10/25 00:51:37;;;;;;;8.13;7.63;;;;;;;;;;4996500;28;20111;-62
2022/10/25 00:54:04;;;;;;;7.90;7.40;;;;;;;;;;4994505;28;20049;-62
2022/10/25 00:56:34;;;;;;;7.38;6.88;;;;;;;;;;4994129;28;20041;-62
2022/10/25 00:59:02;;;;;;;7.40;6.80;;;;;;;;;;4995394;28;20025;-62
2022/10/25 01:01:27;;;;;;;7.50;7.00;;;;;;;;;;4997494;28;20038;-62
2022/10/25 01:03:55;;;;;;;8.80;8.20;;;;;;;;;;4994881;28;20092;-62
2022/10/25 01:06:26;;;;;;;8.48;7.97;;;;;;;;;;4994290;28;20132;-62
2022/10/25 01:08:52;;;;;;;;;;;;;;;;;;4995851;28;20088;-62
2022/10/25 01:11:18;;;;;;;7.57;7.00;;;;;;;;;;4996162;28;19962;-62
2022/10/25 01:13:44;;;;;;;7.70;7.20;;;;;;;;;;4996807;28;20037;-62
2022/10/25 01:16:10;;;;;;;7.82;7.32;;;;;;;;;;4996950;28;20060;-62
2022/10/25 01:18:45;;;;;;;7.55;6.95;;;;;;;;;;4996286;28;20480;-63
2022/10/25 01:21:38;;;;;;;7.35;6.85;;;;;;;;;;4995965;28;20026;-62
2022/10/25 01:24:31;;;;;;;7.43;6.93;;;;;;;;;;4994154;28;20129;-65
2022/10/25 01:27:30;;;;;;;8.77;8.18;;;;;;;;;;5011440;28;20041;-62
2022/10/25 01:30:17;;;;;;;7.32;6.82;;;;;;;;;;4998339;28;20047;-63
2022/10/25 01:32:51;;;;;;;8.13;7.60;;;;;;;;;;4994118;28;20042;-64
2022/10/25 01:35:48;;;;;;;8.20;7.60;;;;;;;;;;4996266;28;20419;-64
2022/10/25 01:38:35;;;;;;;7.85;7.35;;;;;;;;;;4993444;28;20027;-63
2022/10/25 01:41:24;;;;;;;7.65;7.10;;;;;;;;;;4997379;28;20038;-62
2022/10/25 01:44:13;;;;;;;8.07;7.57;;;;;;;;;;4994164;28;20042;-66
2022/10/25 01:47:07;;;;;;;7.80;7.30;;;;;;;;;;4993937;28;20053;-63
2022/10/25 01:49:35;;;;;;;7.72;7.22;;;;;;;;;;4994047;28;20137;-64
2022/10/25 01:52:02;;;;;;;7.60;7.10;;;;;;;;;;4995077;28;20547;-63
2022/10/25 01:54:28;;;;;;;8.48;7.97;;;;;;;;;;4996503;28;20046;-63
2022/10/25 01:57:05;;;;;;;8.38;7.85;;;;;;;;;;4993913;28;20034;-63
2022/10/25 02:00:08;;;;;;;8.13;7.63;;;;;;;;;;4994332;28;20337;-63
2022/10/25 02:02:45;;;;;;;8.02;7.53;;;;;;;;;;4996469;28;20169;-63
2022/10/25 02:05:38;;;;;;;8.00;7.50;;;;;;;;;;4998344;28;20102;-63
2022/10/25 02:08:31;;;;;;;8.95;8.23;;;;;;;;;;4998101;28;20030;-63
2022/10/25 02:11:20;;;;;;;8.30;7.80;;;;;;;;;;4995202;28;20069;-63
2022/10/25 02:14:19;;;;;;;7.95;7.45;;;;;;;;;;4994928;28;20183;-63
2022/10/25 02:17:03;;;;;;;8.23;7.72;;;;;;;;;;4992671;28;20030;-63
2022/10/25 02:19:32;;;;;;;7.63;7.13;;;;;;;;;;4994554;28;20100;-63
2022/10/25 02:22:00;;;;;;;8.13;7.63;;;;;;;;;;4992856;28;20508;-63
2022/10/25 02:24:28;;;;;;;8.52;7.93;;;;;;;;;;4996494;28;20034;-63
2022/10/25 02:26:55;;;;;;;7.40;6.90;;;;;;;;;;4993118;28;20551;-63
2022/10/25 02:29:22;;;;;;;8.60;8.07;;;;;;;;;;4993207;28;20262;-63
2022/10/25 02:31:48;;;;;;;8.40;7.90;;;;;;;;;;4995524;28;20534;-63
2022/10/25 02:34:14;;;;;;;7.68;7.18;;;;;;;;;;4996810;28;20042;-63
2022/10/25 02:36:39;;;;;;;7.50;7.00;;;;;;;;;;4996544;28;20068;-62
2022/10/25 02:39:05;;;;;;;7.53;7.03;;;;;;;;;;4992010;28;20026;-63
2022/10/25 02:41:32;;;;;;;8.07;7.57;;;;;;;;;;4999099;28;20041;-63
2022/10/25 02:43:58;;;;;;;8.50;8.00;;;;;;;;;;4995083;28;20026;-63
2022/10/25 02:46:23;;;;;;;8.75;8.20;;;;;;;;;;4996422;28;20042;-63
2022/10/25 02:48:50;;;;;;;7.90;7.40;;;;;;;;;;4999217;28;20088;-63
2022/10/25 02:51:16;;;;;;;8.02;7.53;;;;;;;;;;4996769;28;20037;-63
2022/10/25 02:53:42;;;;;;;9.20;8.27;;;;;;;;;;4998606;28;20062;-63
2022/10/25 02:56:13;;;;;;;8.18;7.68;;;;;;;;;;4997123;28;20058;-62
2022/10/25 02:58:42;;;;;;;9.13;8.43;;;;;;;;;;4997901;28;20049;-63
2022/10/25 03:01:08;;;;;;;7.93;7.43;;;;;;;;;;5000598;28;20517;-62
2022/10/25 03:03:34;;;;;;;9.35;8.75;;;;;;;;;;4997201;28;20113;-63
2022/10/25 03:05:59;;;;;;;8.35;7.78;;;;;;;;;;4997361;28;20612;-63
2022/10/25 03:08:25;;;;;;;8.48;7.93;;;;;;;;;;5000804;28;20030;-62
2022/10/25 03:10:52;;;;;;;7.75;7.25;;;;;;;;;;4998066;28;20030;-63
2022/10/25 03:13:17;;;;;;;8.00;7.50;;;;;;;;;;5028157;28;20049;-63
2022/10/25 03:15:44;;;;;;;8.80;8.20;;;;;;;;;;4997739;28;20030;-63
2022/10/25 03:18:10;;;;;;;8.18;7.65;;;;;;;;;;5028802;28;20026;-63
2022/10/25 03:20:36;;;;;;;7.80;7.30;;;;;;;;;;4999190;28;20030;-63
2022/10/25 03:23:02;;;;;;;8.02;7.53;;;;;;;;;;4997076;28;20104;-62
2022/10/25 03:25:27;;;;;;;9.00;8.40;;;;;;;;;;4994885;28;20184;-62
2022/10/25 03:27:52;;;;;;;8.80;8.25;;;;;;;;;;4999185;28;20084;-63
2022/10/25 03:30:18;;;;;;;7.53;7.03;;;;;;;;;;4999407;28;20045;-62
2022/10/25 03:32:43;;;;;;;8.25;7.72;;;;;;;;;;4999691;28;20104;-62
2022/10/25 03:35:09;;;;;;;8.70;8.10;;;;;;;;;;4996873;28;20251;-64
2022/10/25 03:37:34;;;;;;;8.85;8.25;;;;;;;;;;4999489;28;20033;-62
2022/10/25 03:40:00;;;;;;;8.75;8.15;;;;;;;;;;4995963;28;20031;-62
2022/10/25 03:42:25;;;;;;;8.65;8.07;;;;;;;;;;4996051;28;20066;-62
2022/10/25 03:44:51;;;;;;;8.82;8.23;;;;;;;;;;4997817;28;20030;-62
2022/10/25 03:47:16;;;;;;;7.80;7.30;;;;;;;;;;4998200;28;20396;-62
2022/10/25 03:49:42;;;;;;;8.82;8.25;;;;;;;;;;5028188;28;20045;-62
2022/10/25 03:52:07;;;;;;;8.95;8.35;;;;;;;;;;4995640;28;20042;-62
2022/10/25 03:54:33;;;;;;;9.15;8.55;;;;;;;;;;4998561;28;20034;-61
2022/10/25 03:56:59;;;;;;;9.45;8.85;;;;;;;;;;4997451;28;20783;-62
2022/10/25 03:59:25;;;;;;;8.80;8.25;;;;;;;;;;4997137;28;20034;-63
2022/10/25 04:01:50;;;;;;;8.32;7.82;;;;;;;;;;4996191;28;20661;-62
2022/10/25 04:04:16;;;;;;;8.48;7.97;;;;;;;;;;4997099;28;20111;-63
2022/10/25 04:06:41;;;;;;;9.18;8.57;;;;;;;;;;4998517;28;20127;-62
2022/10/25 04:09:07;;;;;;;9.00;8.40;;;;;;;;;;4994604;28;20320;-62
2022/10/25 04:11:32;;;;;;;8.70;8.13;;;;;;;;;;4997159;28;20053;-61
2022/10/25 04:13:58;;;;;;;9.00;8.40;;;;;;;;;;4997649;28;20040;-63
2022/10/25 04:16:24;;;;;;;8.05;7.55;;;;;;;;;;4996094;28;20243;-63
2022/10/25 04:18:52;;;;;;;9.02;8.32;;;;;;;;;;4999726;28;20026;-63
2022/10/25 04:21:18;;;;;;;8.73;8.13;;;;;;;;;;4996742;28;20061;-62
2022/10/25 04:23:43;;;;;;;8.38;7.88;;;;;;;;;;4996052;28;20034;-62
2022/10/25 04:26:09;;;;;;;8.00;7.50;;;;;;;;;;4996863;28;20364;-63
2022/10/25 04:28:34;;;;;;;8.13;7.63;;;;;;;;;;4998935;28;20029;-63
2022/10/25 04:30:59;;;;;;;8.85;8.25;;;;;;;;;;4996042;28;20603;-63
2022/10/25 04:33:25;;;;;;;9.25;8.65;;;;;;;;;;4996618;28;20199;-63
2022/10/25 04:35:55;;;;;;;9.38;8.68;;;;;;;;;;4997522;28;20030;-63
2022/10/25 04:38:20;;;;;;;8.15;7.65;;;;;;;;;;4993928;28;20030;-63
2022/10/25 04:40:56;;;;;;;9.25;8.65;;;;;;;;;;4996731;28;20113;-63
2022/10/25 04:43:22;;;;;;;8.68;8.18;;;;;;;;;;4996291;28;20479;-63
2022/10/25 04:45:47;;;;;;;9.00;8.40;;;;;;;;;;4997942;28;20189;-63
2022/10/25 04:48:13;;;;;;;9.35;8.75;;;;;;;;;;4997476;28;20035;-62
2022/10/25 04:50:39;;;;;;;8.80;8.25;;;;;;;;;;4993547;28;20483;-62
2022/10/25 04:53:05;;;;;;;8.25;7.75;;;;;;;;;;5025176;28;20072;-62
2022/10/25 04:55:31;;;;;;;8.07;7.57;;;;;;;;;;4995998;28;20030;-62
2022/10/25 04:57:56;;;;;;;9.35;8.65;;;;;;;;;;4996522;28;20041;-62
2022/10/25 05:00:22;;;;;;;8.25;7.75;;;;;;;;;;4994612;28;20034;-62
2022/10/25 05:02:50;;;;;;;9.38;8.77;;;;;;;;;;4990919;28;20042;-62
2022/10/25 05:05:16;;;;;;;9.07;8.48;;;;;;;;;;4995200;28;20550;-62
2022/10/25 05:07:41;;;;;;;8.38;7.85;;;;;;;;;;4992949;28;20042;-62
2022/10/25 05:10:07;;;;;;;8.70;8.10;;;;;;;;;;4997579;28;20169;-62
2022/10/25 05:12:32;;;;;;;9.40;8.60;;;;;;;;;;4997272;23;20137;-62
2022/10/25 05:14:57;;;;;;;8.68;8.07;;;;;;;;;;4995726;28;20053;-64
2022/10/25 05:17:23;;;;;;;8.52;8.00;;;;;;;;;;4996869;28;20041;-61
2022/10/25 05:19:48;;;;;;;9.15;8.52;;;;;;;;;;4998957;28;20132;-61
2022/10/25 05:22:13;;;;;;;8.68;8.13;;;;;;;;;;4997341;28;20030;-62
2022/10/25 05:24:39;;;;;;;9.00;8.40;;;;;;;;;;4995357;28;20049;-62
2022/10/25 05:27:04;;;;;;;7.80;7.30;;;;;;;;;;4998058;28;20712;-63
2022/10/25 05:29:29;;;;;;;8.73;8.13;;;;;;;;;;4997648;28;20060;-62
2022/10/25 05:31:55;;;;;;;8.32;7.82;;;;;;;;;;4996250;28;20091;-62
2022/10/25 05:34:20;;;;;;;9.50;8.75;;;;;;;;;;4996869;28;20026;-61
2022/10/25 05:36:46;;;;;;;8.75;8.20;;;;;;;;;;4999369;28;20031;-61
2022/10/25 05:39:11;;;;;;;9.35;8.75;;;;;;;;;;4997733;28;20022;-62
2022/10/25 05:41:36;;;;;;;11.38;10.30;;;;;;;;;;4997747;28;20033;-62
2022/10/25 05:44:02;;;;;;;9.18;8.57;;;;;;;;;;4996385;28;20278;-62
2022/10/25 05:46:27;;;;;;;9.25;8.55;;;;;;;;;;4996503;28;20076;-62
2022/10/25 05:48:53;;;;;;;9.43;8.82;;;;;;;;;;4997314;28;20526;-62
2022/10/25 05:51:27;;;;;;;8.73;8.18;;;;;;;;;;4996957;28;20071;-62
2022/10/25 05:53:57;;;;;;;8.77;8.18;;;;;;;;;;4997162;28;20033;-62
2022/10/25 05:56:25;;;;;;;8.52;7.97;;;;;;;;;;4996334;28;20401;-62
2022/10/25 05:58:51;;;;;;;9.45;8.65;;;;;;;;;;4995209;28;20030;-62
2022/10/25 06:01:19;;;;;;;9.25;8.65;;;;;;;;;;4997124;28;20510;-61
2022/10/25 06:03:49;;;;;;;9.05;8.35;;;;;;;;;;4995324;28;20176;-61
2022/10/25 06:06:15;;;;;;;9.57;8.97;;;;;;;;;;4991902;28;20026;-62
2022/10/25 06:08:41;;;;;;;9.93;9.32;;;;;;;;;;4990652;28;20362;-60
2022/10/25 06:11:11;;;;;;;9.20;8.60;;;;;;;;;;4993905;28;20040;-62
2022/10/25 06:13:38;;;;;;;9.75;9.00;;;;;;;;;;4991661;28;20037;-61
2022/10/25 06:16:09;;;;;;;9.20;8.60;;;;;;;;;;4996817;28;20034;-61
2022/10/25 06:18:37;;;;;;;9.73;9.13;;;;;;;;;;5000500;28;20270;-61
2022/10/25 06:21:14;;;;;;;9.60;9.00;;;;;;;;;;5005152;28;20037;-61
2022/10/25 06:23:40;;;;;;;9.80;9.20;;;;;;;;;;4998611;28;20356;-61
2022/10/25 06:26:15;;;;;;;9.93;9.32;;;;;;;;;;4998619;28;20041;-61
2022/10/25 06:28:41;;;;;;;9.70;9.10;;;;;;;;;;4998895;28;20061;-61
2022/10/25 06:31:12;;;;;;;10.70;9.90;;;;;;;;;;4997008;28;20507;-62
2022/10/25 06:33:38;;;;;;;9.55;8.95;;;;;;;;;;4997532;28;20045;-61
2022/10/25 06:36:06;;;;;;;10.55;9.85;;;;;;;;;;4997032;28;20038;-61
2022/10/25 06:38:32;;;;;;;9.82;9.23;;;;;;;;;;4998490;28;20192;-61
2022/10/25 06:41:04;;;;;;;10.25;9.50;;;;;;;;;;5005224;28;20122;-61
2022/10/25 06:43:30;;;;;;;8.52;8.02;;;;;;;;;;4997193;28;20088;-60
2022/10/25 06:45:56;;;;;;;9.13;8.52;;;;;;;;;;4997737;28;20034;-61
2022/10/25 06:48:22;;;;;;;8.60;8.07;;;;;;;;;;4995502;28;20468;-61
2022/10/25 06:50:47;;;;;;;8.27;7.78;;;;;;;;;;4995951;28;20030;-60
2022/10/25 06:53:13;;;;;;;9.27;8.68;;;;;;;;;;4998914;28;20046;-61
2022/10/25 06:55:38;;;;;;;8.48;7.97;;;;;;;;;;4996859;28;20029;-60
2022/10/25 06:58:04;;;;;;;8.95;8.35;;;;;;;;;;4996099;28;20064;-61
2022/10/25 07:00:29;;;;;;;9.45;8.82;;;;;;;;;;4997360;28;20049;-61
2022/10/25 07:02:56;;;;;;;9.13;8.52;;;;;;;;;;4998711;28;20496;-61
2022/10/25 07:05:22;;;;;;;9.70;9.10;;;;;;;;;;4997991;28;20042;-60
2022/10/25 07:07:47;;;;;;;8.85;8.25;;;;;;;;;;4998869;28;20025;-61
2022/10/25 07:10:13;;;;;;;10.85;9.70;;;;;;;;;;4998313;28;20419;-61
2022/10/25 07:12:38;;;;;;;9.93;9.20;;;;;;;;;;4998424;28;20041;-61
2022/10/25 07:15:04;;;;;;;9.40;8.65;;;;;;;;;;4997963;28;20556;-61
2022/10/25 07:17:29;;;;;;;8.85;8.25;;;;;;;;;;4993999;28;20057;-61
2022/10/25 07:19:56;;;;;;;8.65;8.05;;;;;;;;;;4995239;28;20472;-61
2022/10/25 07:22:22;;;;;;;10.02;9.23;;;;;;;;;;5000527;28;20079;-61
2022/10/25 07:24:48;;;;;;;9.32;8.63;;;;;;;;;;4997007;28;20226;-61
2022/10/25 07:27:13;;;;;;;9.93;9.32;;;;;;;;;;4995726;28;20624;-62
2022/10/25 07:29:38;;;;;;;9.38;8.75;;;;;;;;;;4994441;28;20026;-61
2022/10/25 07:32:04;;;;;;;9.25;8.65;;;;;;;;;;4997793;28;20038;-61
2022/10/25 07:34:29;;;;;;;9.82;9.05;;;;;;;;;;4995661;28;20044;-61
2022/10/25 07:36:54;;;;;;;9.35;8.75;;;;;;;;;;4992917;28;20042;-61
2022/10/25 07:39:20;;;;;;;8.32;7.82;;;;;;;;;;4996467;28;20054;-62
2022/10/25 07:41:45;;;;;;;9.35;8.70;;;;;;;;;;4998539;28;20068;-61
2022/10/25 07:44:11;;;;;;;9.02;8.43;;;;;;;;;;4998252;28;20053;-61
2022/10/25 07:46:36;;;;;;;8.65;8.05;;;;;;;;;;4998755;28;20030;-62
2022/10/25 07:49:01;;;;;;;9.60;9.00;;;;;;;;;;5001429;28;20492;-61
2022/10/25 07:51:27;;;;;;;8.95;8.35;;;;;;;;;;4996263;28;20469;-61
2022/10/25 07:53:52;;;;;;;9.02;8.43;;;;;;;;;;4995734;28;20037;-61
2022/10/25 07:56:18;;;;;;;9.02;8.43;;;;;;;;;;4996912;28;20268;-61
2022/10/25 07:58:44;;;;;;;9.70;9.10;;;;;;;;;;4992274;28;20061;-61
2022/10/25 08:01:10;;;;;;;9.23;8.52;;;;;;;;;;4996232;28;20030;-61
2022/10/25 08:03:36;;;;;;;9.23;8.63;;;;;;;;;;4996248;28;20540;-62
2022/10/25 08:06:02;;;;;;;8.95;8.35;;;;;;;;;;4995915;28;20088;-61
2022/10/25 08:08:28;;;;;;;8.63;8.02;;;;;;;;;;4998602;28;20061;-60
2022/10/25 08:10:54;;;;;;;9.00;8.40;;;;;;;;;;4997754;28;20105;-59
2022/10/25 08:13:19;;;;;;;8.68;8.05;;;;;;;;;;4996258;28;20125;-61
2022/10/25 08:15:52;;;;;;;8.30;7.70;;;;;;;;;;4999414;28;20519;-61
2022/10/25 08:18:17;;;;;;;8.20;7.60;;;;;;;;;;4996128;28;20357;-61
2022/10/25 08:20:42;;;;;;;8.13;7.63;;;;;;;;;;4996061;28;20088;-61
2022/10/25 08:23:08;;;;;;;9.10;8.50;;;;;;;;;;4998051;28;20241;-61
2022/10/25 08:25:33;;;;;;;8.38;7.82;;;;;;;;;;4995486;28;20037;-61
2022/10/25 08:27:58;;;;;;;8.20;7.60;;;;;;;;;;4991665;28;20041;-61
2022/10/25 08:30:24;;;;;;;8.93;8.32;;;;;;;;;;4996620;28;20084;-61
2022/10/25 08:32:50;;;;;;;8.05;7.55;;;;;;;;;;4993528;28;20501;-61
2022/10/25 08:35:15;;;;;;;8.18;7.65;;;;;;;;;;4993110;28;20062;-61
2022/10/25 08:37:41;;;;;;;8.27;7.68;;;;;;;;;;4994951;28;20061;-61
2022/10/25 08:40:15;;;;;;;8.25;7.68;;;;;;;;;;4995766;28;20317;-61
2022/10/25 08:42:57;;;;;;;8.35;7.75;;;;;;;;;;4998355;28;20022;-61
2022/10/25 08:45:37;;;;;;;7.70;7.20;;;;;;;;;;4995129;28;20338;-61
2022/10/25 08:48:12;;;;;;;7.93;7.43;;;;;;;;;;4996084;28;20044;-61
2022/10/25 08:50:45;;;;;;;7.57;7.07;;;;;;;;;;4996244;28;20187;-61
2022/10/25 08:53:19;;;;;;;9.15;8.48;;;;;;;;;;4998283;28;20038;-62
2022/10/25 08:55:45;;;;;;;8.73;8.13;;;;;;;;;;4993926;28;20316;-61
2022/10/25 08:58:33;;;;;;;8.35;7.75;;;;;;;;;;4996853;28;20522;-62
2022/10/25 09:01:05;;;;;;;8.20;7.70;;;;;;;;;;4993158;28;20062;-61
2022/10/25 09:03:30;;;;;;;8.00;7.50;;;;;;;;;;4995339;28;20057;-61
2022/10/25 09:06:06;;;;;;;8.70;8.10;;;;;;;;;;4996352;28;20034;-62
2022/10/25 09:08:48;;;;;;;8.20;7.70;;;;;;;;;;4997320;28;20040;-61
2022/10/25 09:11:38;;;;;;;8.38;7.78;;;;;;;;;;4992241;28;20546;-61
2022/10/25 09:14:38;;;;;;;7.80;7.30;;;;;;;;;;4993278;28;20249;-60
2022/10/25 09:17:19;;;;;;;7.85;7.35;;;;;;;;;;4997634;28;20406;-61
2022/10/25 09:20:03;;;;;;;8.57;8.00;;;;;;;;;;4997327;28;20033;-61
2022/10/25 09:22:35;;;;;;;8.50;7.90;;;;;;;;;;4995615;28;20153;-61
2022/10/25 09:25:31;;;;;;;9.07;8.48;;;;;;;;;;4997893;28;20053;-61
2022/10/25 09:28:02;;;;;;;8.40;7.85;;;;;;;;;;5005884;28;20042;-61
2022/10/25 09:30:38;;;;;;;10.00;8.80;;;;;;;;;;4995847;28;20038;-61
2022/10/25 09:33:12;;;;;;;8.02;7.53;;;;;;;;;;4993898;28;20136;-61
2022/10/25 09:35:44;;;;;;;7.88;7.38;;;;;;;;;;4993543;28;20111;-61
2022/10/25 09:38:25;;;;;;;10.45;9.75;;;;;;;;;;4998070;28;20026;-61
2022/10/25 09:41:01;;;;;;;8.80;8.20;;;;;;;;;;4992594;28;20536;-64
2022/10/25 09:43:43;;;;;;;10.70;10.00;;;;;;;;;;4996964;28;20491;-60
2022/10/25 09:46:19;;;;;;;10.77;10.15;;;;;;;;;;4996177;28;20038;-61
2022/10/25 09:48:53;;;;;;;12.48;11.60;;;;;;;;;;4999141;28;20057;-60
2022/10/25 09:51:50;;;;;;;10.80;10.18;;;;;;;;;;4995534;28;20037;-60
2022/10/25 09:54:38;;;;;;;11.32;10.63;;;;;;;;;;4998524;28;20049;-61
2022/10/25 09:57:04;;;;;;;11.77;11.07;;;;;;;;;;4997214;28;20510;-61
2022/10/25 09:59:29;;;;;;;11.43;10.73;;;;;;;;;;4999605;28;20066;-60
2022/10/25 10:01:55;;;;;;;12.27;11.40;;;;;;;;;;4997141;28;20073;-61
2022/10/25 10:04:27;;;;;;;11.85;11.15;;;;;;;;;;4999734;28;20034;-61
2022/10/25 10:06:57;;;;;;;12.82;11.65;;;;;;;;;;5000026;28;20038;-61
2022/10/25 10:09:27;;;;;;;14.60;13.75;;;;;;;;;;4994325;28;20046;-61
2022/10/25 10:11:53;;;;;;;13.27;12.48;;;;;;;;;;4993555;28;20091;-60
2022/10/25 10:14:30;;;;;;;12.63;11.82;;;;;;;;;;4997602;28;20507;-61
2022/10/25 10:16:56;;;;;;;14.65;13.75;;;;;;;;;;5001425;28;20360;-60
2022/10/25 10:19:24;;;;;;;15.52;14.35;;;;;;;;;;4995944;28;20041;-61
2022/10/25 10:21:53;;;;;;;15.43;14.52;;;;;;;;;;5003165;28;20029;-61
2022/10/25 10:24:22;;;;;;;17.35;16.35;;;;;;;;;;4997841;28;20044;-60
2022/10/25 10:26:54;;;;;;;16.83;15.90;;;;;;;;;;4994604;28;20479;-61
2022/10/25 10:30:08;;;;;;;16.02;15.13;;;;;;;;;;4999299;28;20125;-60
2022/10/25 10:32:36;;;;;;;18.15;17.15;;;;;;;;;;4995631;28;20041;-60
2022/10/25 10:35:05;;;;;;;18.25;17.25;;;;;;;;;;4995110;28;20368;-60
2022/10/25 10:37:31;;;;;;;22.10;20.90;;;;;;;;;;4997182;28;20029;-61
2022/10/25 10:40:01;;;;;;;23.20;21.98;;;;;;;;;;4984673;28;20461;-61
2022/10/25 10:42:30;;;;;;;26.92;25.42;;;;;;;;;;4995264;28;20034;-61
2022/10/25 10:45:02;;;;;;;26.27;24.87;;;;;;;;;;4994840;28;20034;-61
2022/10/25 10:47:34;;;;;;;26.65;25.17;;;;;;;;;;4999094;28;20095;-63
2022/10/25 10:50:00;;;;;;;28.40;26.92;;;;;;;;;;5000491;28;20030;-61
2022/10/25 10:52:35;;;;;;;25.13;23.80;;;;;;;;;;4999113;28;20022;-60
2022/10/25 10:55:01;;;;;;;25.30;23.98;;;;;;;;;;5000809;28;20054;-60
2022/10/25 10:57:33;;;;;;;20.98;19.85;;;;;;;;;;4999649;28;20125;-61
2022/10/25 10:59:59;;;;;;;26.27;24.88;;;;;;;;;;5001127;28;20022;-61
2022/10/25 11:02:33;;;;;;;27.17;25.75;;;;;;;;;;4997111;28;20037;-60
2022/10/25 11:04:58;;;;;;;32.60;30.90;;;;;;;;;;4997888;28;20030;-61
2022/10/25 11:07:31;;;;;;;32.92;31.23;;;;;;;;;;5001006;28;20037;-59
2022/10/25 11:10:14;;;;;;;32.30;30.63;;;;;;;;;;4996262;28;20034;-59
2022/10/25 11:12:40;;;;;;;27.88;26.38;;;;;;;;;;5004830;28;20035;-60
2022/10/25 11:15:13;;;;;;;30.90;29.30;;;;;;;;;;4997917;28;20088;-60
2022/10/25 11:17:46;;;;;;;30.65;29.05;;;;;;;;;;4998822;28;20105;-60
2022/10/25 11:20:29;;;;;;;29.65;28.10;;;;;;;;;;4998715;28;20030;-60
2022/10/25 11:22:57;;;;;;;29.35;27.83;;;;;;;;;;4998681;28;20038;-60
2022/10/25 11:25:44;;;;;;;32.33;30.65;;;;;;;;;;4996691;28;20507;-60
2022/10/25 11:28:34;;;;;;;30.80;28.80;;;;;;;;;;4997844;28;20472;-59
2022/10/25 11:31:02;;;;;;;29.77;28.17;;;;;;;;;;4996215;28;20164;-60
2022/10/25 11:33:43;;;;;;;29.90;28.35;;;;;;;;;;4998891;28;20112;-61
2022/10/25 11:36:29;;;;;;;;;;;;;;;;;;4998111;28;20080;-61
2022/10/25 11:39:07;;;;;;;26.00;24.63;;;;;;;;;;4996020;28;20039;-61
2022/10/25 11:41:59;;;;;;;31.30;29.40;;;;;;;;;;4997032;28;20215;-60
2022/10/25 11:44:42;;;;;;;29.85;28.30;;;;;;;;;;4999044;28;20041;-61
2022/10/25 11:47:14;;;;;;;31.98;30.27;;;;;;;;;;4997548;28;20121;-60
2022/10/25 11:49:46;;;;;;;31.88;30.13;;;;;;;;;;4999303;28;20022;-62
2022/10/25 11:52:21;;;;;;;29.13;27.63;;;;;;;;;;5001858;28;20117;-63
2022/10/25 11:54:52;;;;;;;29.75;28.15;;;;;;;;;;5000833;28;20460;-60
2022/10/25 11:57:30;;;;;;;30.48;28.85;;;;;;;;;;4998092;28;20049;-60
2022/10/25 12:00:11;;;;;;;28.65;27.15;;;;;;;;;;4996244;28;20046;-60
2022/10/25 12:03:14;;;;;;;27.92;26.48;;;;;;;;;;4996110;28;20065;-59
2022/10/25 12:05:45;;;;;;;30.45;28.85;;;;;;;;;;5011126;28;20033;-62
2022/10/25 12:08:35;;;;;;;32.15;30.23;;;;;;;;;;4996813;28;20034;-61
2022/10/25 12:11:18;;;;;;;25.92;24.58;;;;;;;;;;4999193;28;20038;-60
2022/10/25 12:13:50;;;;;;;26.50;24.92;;;;;;;;;;4998526;28;20072;-59
2022/10/25 12:16:19;;;;;;;31.08;29.48;;;;;;;;;;4995862;28;20095;-61
2022/10/25 12:18:47;;;;;;;27.55;26.05;;;;;;;;;;4996780;28;20037;-60
2022/10/25 12:21:29;;;;;;;29.52;28.02;;;;;;;;;;4995526;28;20188;-60
2022/10/25 12:23:55;;;;;;;28.60;27.10;;;;;;;;;;4995910;28;20061;-59
2022/10/25 12:26:30;;;;;;;28.70;27.23;;;;;;;;;;4996460;28;20069;-61
2022/10/25 12:29:01;;;;;;;22.83;21.52;;;;;;;;;;4996522;28;20026;-62
2022/10/25 12:31:41;;;;;;;18.77;17.75;;;;;;;;;;4995940;28;20137;-61
2022/10/25 12:34:14;;;;;;;20.50;19.38;;;;;;;;;;4994787;28;20488;-60
2022/10/25 12:36:48;;;;;;;18.80;17.75;;;;;;;;;;4994289;28;20038;-61
2022/10/25 12:39:39;;;;;;;21.67;20.48;;;;;;;;;;4993043;28;20113;-60
2022/10/25 12:42:12;;;;;;;18.55;17.55;;;;;;;;;;4996051;28;20085;-61
2022/10/25 12:45:01;;;;;;;19.83;18.75;;;;;;;;;;4994554;28;20034;-61
2022/10/25 12:47:38;;;;;;;20.67;19.58;;;;;;;;;;4994418;28;20498;-61
2022/10/25 12:50:15;;;;;;;22.08;20.88;;;;;;;;;;4994262;28;20045;-62
2022/10/25 12:53:07;;;;;;;25.35;24.00;;;;;;;;;;4995894;28;20040;-61
2022/10/25 12:55:48;;;;;;;24.92;23.60;;;;;;;;;;4993562;28;20230;-61
2022/10/25 12:58:48;;;;;;;26.75;25.35;;;;;;;;;;4997929;28;20680;-61
2022/10/25 13:01:35;;;;;;;25.63;24.25;;;;;;;;;;4991779;28;20065;-61
2022/10/25 13:04:21;;;;;;;20.75;19.60;;;;;;;;;;4996508;28;20103;-63
2022/10/25 13:06:49;;;;;;;21.98;20.77;;;;;;;;;;4994564;28;20026;-62
2022/10/25 13:09:18;;;;;;;24.70;23.38;;;;;;;;;;4997132;28;20664;-61
2022/10/25 13:12:17;;;;;;;25.40;24.00;;;;;;;;;;4993394;28;20128;-61
2022/10/25 13:14:46;;;;;;;22.63;21.42;;;;;;;;;;4994915;28;20022;-60
2022/10/25 13:17:17;;;;;;;21.98;20.67;;;;;;;;;;4993789;28;20514;-61
2022/10/25 13:19:46;;;;;;;24.30;23.02;;;;;;;;;;4994564;28;20022;-59
2022/10/25 13:22:27;;;;;;;22.90;21.70;;;;;;;;;;4995141;28;20415;-61
2022/10/25 13:24:52;;;;;;;21.55;20.40;;;;;;;;;;4996838;28;20105;-59
2022/10/25 13:27:23;;;;;;;20.55;19.45;;;;;;;;;;4994481;28;20220;-59
2022/10/25 13:30:00;;;;;;;23.30;22.02;;;;;;;;;;4995497;28;20132;-59
2022/10/25 13:32:26;;;;;;;22.75;21.55;;;;;;;;;;4996195;28;20037;-60
2022/10/25 13:34:52;;;;;;;22.15;20.95;;;;;;;;;;4994986;28;20088;-60
2022/10/25 13:37:37;;;;;;;23.88;22.60;;;;;;;;;;4994018;28;20527;-61
2022/10/25 13:40:02;;;;;;;19.27;18.20;;;;;;;;;;4994464;28;20022;-62
2022/10/25 13:42:36;;;;;;;23.00;21.77;;;;;;;;;;4995054;28;20354;-60
2022/10/25 13:45:01;;;;;;;22.58;20.95;;;;;;;;;;4993520;28;20468;-61
2022/10/25 13:47:40;;;;;;;21.88;20.70;;;;;;;;;;4995581;28;20045;-61
2022/10/25 13:50:13;;;;;;;20.05;18.85;;;;;;;;;;4994990;28;20094;-61
2022/10/25 13:52:47;;;;;;;21.63;20.42;;;;;;;;;;4996593;28;20333;-61
2022/10/25 13:55:14;;;;;;;23.33;22.08;;;;;;;;;;4995475;28;20414;-61
2022/10/25 13:57:47;;;;;;;23.15;21.92;;;;;;;;;;4995729;28;20236;-61
2022/10/25 14:00:22;;;;;;;26.58;25.13;;;;;;;;;;4994071;28;20516;-61
2022/10/25 14:03:09;;;;;;;21.83;20.63;;;;;;;;;;4993802;28;20038;-61
2022/10/25 14:05:52;;;;;;;21.92;20.63;;;;;;;;;;4992060;28;20368;-61
2022/10/25 14:08:20;;;;;;;21.88;20.70;;;;;;;;;;4993732;28;20026;-61
2022/10/25 14:10:48;;;;;;;21.80;20.60;;;;;;;;;;4995456;28;20027;-61
2022/10/25 14:13:20;;;;;;;20.00;18.90;;;;;;;;;;4994115;28;20070;-60
2022/10/25 14:15:55;;;;;;;21.98;20.77;;;;;;;;;;4998062;28;20049;-61
2022/10/25 14:18:22;;;;;;;21.38;20.17;;;;;;;;;;4994061;28;20045;-61
2022/10/25 14:20:53;;;;;;;20.83;19.70;;;;;;;;;;4996271;28;20572;-60
2022/10/25 14:23:23;;;;;;;;;;;;;;;;;;4996526;28;20053;-61
2022/10/25 14:25:57;;;;;;;18.20;17.20;;;;;;;;;;4997480;28;19968;-61
2022/10/25 14:28:24;;;;;;;18.38;17.38;;;;;;;;;;4993636;28;20046;-61
2022/10/25 14:31:00;;;;;;;20.65;19.55;;;;;;;;;;4993552;28;20026;-60
2022/10/25 14:33:37;;;;;;;18.77;17.75;;;;;;;;;;4993233;28;20045;-61
2022/10/25 14:36:21;;;;;;;19.10;18.05;;;;;;;;;;4993993;28;20049;-61
2022/10/25 14:38:56;;;;;;;19.08;18.05;;;;;;;;;;4996841;28;20034;-61
2022/10/25 14:41:27;;;;;;;18.80;17.73;;;;;;;;;;4999329;28;20089;-61
2022/10/25 14:43:53;;;;;;;19.85;18.65;;;;;;;;;;4999030;28;20077;-61
2022/10/25 14:46:21;;;;;;;18.98;17.98;;;;;;;;;;5011610;28;20034;-61
2022/10/25 14:48:48;;;;;;;19.15;18.10;;;;;;;;;;4997473;28;20035;-61
2022/10/25 14:51:20;;;;;;;18.55;17.52;;;;;;;;;;5000403;28;20034;-61
2022/10/25 14:53:56;;;;;;;17.95;16.95;;;;;;;;;;4999037;28;20037;-61
2022/10/25 14:56:42;;;;;;;19.13;18.10;;;;;;;;;;4995739;28;20040;-61
2022/10/25 14:59:28;;;;;;;16.58;15.68;;;;;;;;;;4995475;28;20030;-60